Time;durP1;ratioP1;P1;durP2;ratioP2;P2;SDS_P1;SDS_P2;PMS_P1;PMS_P2;Temp;Humidity;BMP_temperature;BMP_pressure;BME280_temperature;BME280_humidity;BME280_pressure;Samples;Min_cycle;Max_cycle;Signal;HPM_P1;HPM_P2
2022/12/31 00:00:08;;;;;;;12.55;4.03;;;;;;;6.41;96.48;98382.50;5042216;28;20049;-46
2022/12/31 00:02:35;;;;;;;10.60;3.55;;;;;;;6.39;96.69;98391.13;5050634;28;20037;-46
2022/12/31 00:05:03;;;;;;;8.18;3.67;;;;;;;6.41;96.90;98394.28;5050330;28;20368;-47
2022/12/31 00:07:30;;;;;;;13.00;5.30;;;;;;;6.44;96.89;98384.50;5050526;28;20045;-47
2022/12/31 00:09:56;;;;;;;10.63;5.55;;;;;;;6.45;96.94;98395.16;5050458;28;20051;-56
2022/12/31 00:12:24;;;;;;;14.75;5.60;;;;;;;6.46;96.96;98391.22;5049164;28;20037;-47
2022/12/31 00:14:51;;;;;;;15.75;4.45;;;;;;;6.46;96.96;98395.94;5050475;28;20055;-46
2022/12/31 00:17:17;;;;;;;12.13;5.07;;;;;;;6.46;97.00;98393.97;5044091;28;20069;-46
2022/12/31 00:19:44;;;;;;;18.88;5.43;;;;;;;6.47;97.12;98398.31;5046883;28;20045;-47
2022/12/31 00:22:11;;;;;;;18.95;6.50;;;;;;;6.49;97.22;98400.66;5048040;28;20068;-46
2022/12/31 00:24:38;;;;;;;13.20;6.15;;;;;;;6.49;97.34;98384.19;5050296;28;20056;-46
2022/12/31 00:27:04;;;;;;;18.88;6.05;;;;;;;6.51;97.22;98390.09;5051214;28;20045;-46
2022/12/31 00:30:14;;;;;;;16.40;5.60;;;;;;;6.53;97.29;98385.81;5049428;28;20140;-46
2022/12/31 00:36:25;;;;;;;16.52;5.10;;;;;;;6.57;97.25;98397.63;5040779;28;20073;-47
2022/12/31 00:38:54;;;;;;;14.65;4.85;;;;;;;6.58;97.15;98384.69;5050506;28;20132;-46
2022/12/31 00:41:21;;;;;;;13.18;3.97;;;;;;;6.61;97.43;98397.69;5050424;28;20163;-47
2022/12/31 00:43:49;;;;;;;14.57;5.18;;;;;;;6.63;97.41;98385.13;5050092;28;20041;-48
2022/12/31 00:46:16;;;;;;;13.45;4.57;;;;;;;6.64;97.64;98391.44;5049461;28;20498;-47
2022/12/31 00:48:44;;;;;;;16.42;5.47;;;;;;;6.65;97.86;98382.78;5050480;28;20087;-47
2022/12/31 00:51:27;;;;;;;13.27;5.20;;;;;;;6.67;97.83;98390.69;5050557;28;20128;-48
2022/12/31 00:53:56;;;;;;;17.17;4.10;;;;;;;6.69;97.88;98400.13;5049644;28;20427;-46
2022/12/31 00:56:25;;;;;;;19.30;4.00;;;;;;;6.70;97.91;98398.94;5051513;28;20141;-49
2022/12/31 00:58:53;;;;;;;25.95;7.28;;;;;;;6.70;98.18;98396.22;5051721;28;20047;-46
2022/12/31 01:01:26;;;;;;;22.50;4.82;;;;;;;6.70;98.16;98396.22;5050476;28;20131;-47
2022/12/31 01:03:57;;;;;;;16.02;3.85;;;;;;;6.72;98.20;98399.38;5037072;28;20052;-47
2022/12/31 01:06:25;;;;;;;10.75;4.07;;;;;;;6.73;98.48;98392.72;5047590;28;20041;-50
2022/12/31 01:08:54;;;;;;;12.57;4.28;;;;;;;6.72;98.53;98399.38;5053642;28;20522;-47
2022/12/31 01:11:22;;;;;;;15.77;4.03;;;;;;;6.75;98.74;98404.09;5047856;28;20148;-49
2022/12/31 01:13:53;;;;;;;17.70;3.83;;;;;;;6.77;98.82;98416.72;5060578;28;20073;-47
2022/12/31 01:16:33;;;;;;;18.50;4.75;;;;;;;6.78;99.00;98410.06;5048435;28;20041;-47
2022/12/31 01:19:04;;;;;;;18.42;3.60;;;;;;;6.79;99.09;98408.88;5011228;28;20077;-47
2022/12/31 01:21:33;;;;;;;12.15;4.43;;;;;;;6.78;99.19;98401.81;5027646;28;20061;-47
2022/12/31 01:24:00;;;;;;;15.70;4.70;;;;;;;6.80;99.36;98404.97;5024151;28;20456;-48
2022/12/31 01:26:27;;;;;;;22.27;3.53;;;;;;;6.79;99.29;98397.88;5029097;28;20033;-50
2022/12/31 01:28:54;;;;;;;14.73;4.28;;;;;;;6.80;99.53;98404.97;5031983;28;20491;-48
2022/12/31 01:31:34;;;;;;;18.42;4.30;;;;;;;6.79;99.70;98411.63;5030231;28;20394;-51
2022/12/31 01:34:21;;;;;;;11.10;3.75;;;;;;;6.78;100.00;98426.56;5025706;28;20038;-48
2022/12/31 01:36:48;;;;;;;17.67;4.80;;;;;;;6.77;99.99;98411.22;5021095;28;20124;-47
2022/12/31 01:39:20;;;;;;;23.05;5.10;;;;;;;6.78;100.00;98421.03;5029197;28;20034;-47
2022/12/31 01:41:59;;;;;;;11.10;3.97;;;;;;;6.78;100.00;98429.31;5029959;28;20045;-47
2022/12/31 01:44:26;;;;;;;21.70;5.63;;;;;;;6.77;100.00;98417.50;5021426;28;20132;-48
2022/12/31 01:46:57;;;;;;;19.10;5.00;;;;;;;6.78;100.00;98423.78;5030567;28;20045;-48
2022/12/31 01:49:39;;;;;;;9.07;4.28;;;;;;;6.77;100.00;98416.72;5032950;28;20121;-50
2022/12/31 01:52:29;;;;;;;15.77;4.65;;;;;;;6.75;100.00;98420.63;5031299;28;20083;-47
2022/12/31 01:55:13;;;;;;;18.85;5.80;;;;;;;6.74;100.00;98410.81;5032818;28;20046;-50
2022/12/31 01:57:43;;;;;;;21.27;4.95;;;;;;;6.73;100.00;98408.41;5031833;28;20488;-47
2022/12/31 02:00:10;;;;;;;18.92;5.20;;;;;;;6.72;100.00;98407.59;5033669;28;20486;-54
2022/12/31 02:02:37;;;;;;;21.63;5.20;;;;;;;6.74;100.00;98407.25;5035594;28;20065;-48
2022/12/31 02:05:26;;;;;;;15.73;5.93;;;;;;;6.72;100.00;98396.63;5015600;28;20124;-48
2022/12/31 02:08:12;;;;;;;20.40;6.15;;;;;;;6.72;100.00;98399.38;5033123;28;20048;-50
2022/12/31 02:10:39;;;;;;;15.45;5.03;;;;;;;6.71;100.00;98408.78;5032400;28;20392;-47
2022/12/31 02:13:06;;;;;;;20.50;5.60;;;;;;;6.69;100.00;98413.88;5028489;28;20043;-50
2022/12/31 02:16:01;;;;;;;16.33;5.40;;;;;;;6.69;100.00;98399.34;5029153;28;20041;-48
2022/12/31 02:18:48;;;;;;;14.90;5.00;;;;;;;6.67;100.00;98391.44;5039389;28;20061;-50
2022/12/31 02:21:41;;;;;;;13.68;4.60;;;;;;;6.67;100.00;98398.94;5047903;28;20079;-49
2022/12/31 02:24:30;;;;;;;14.95;4.93;;;;;;;6.66;100.00;98380.84;5051684;28;20491;-50
2022/12/31 02:27:00;;;;;;;18.20;5.45;;;;;;;6.64;100.00;98381.22;5027844;28;20123;-47
2022/12/31 02:33:23;;;;;;;11.80;4.50;;;;;;;6.60;100.00;98377.63;5043226;28;20029;-47
2022/12/31 02:40:18;;;;;;;13.88;4.75;;;;;;;6.56;100.00;98387.81;5045718;28;20131;-49
2022/12/31 02:46:42;;;;;;;17.50;4.97;;;;;;;6.51;100.00;98390.88;5039144;28;20032;-48
2022/12/31 02:49:21;;;;;;;18.77;6.75;;;;;;;6.51;100.00;98396.38;5029894;28;20135;-47
2022/12/31 02:52:23;;;;;;;14.93;6.53;;;;;;;6.50;100.00;98397.56;5046483;28;20067;-48
2022/12/31 02:55:19;;;;;;;13.10;6.13;;;;;;;6.49;100.00;98390.47;5052301;28;20041;-49
2022/12/31 02:58:20;;;;;;;13.50;5.38;;;;;;;6.49;100.00;98390.47;5055740;28;20051;-47
2022/12/31 03:04:35;;;;;;;15.45;6.30;;;;;;;6.47;100.00;98392.81;4992379;28;20132;-47
2022/12/31 03:07:12;;;;;;;23.70;6.70;;;;;;;6.48;100.00;98399.91;4991857;28;20062;-49
2022/12/31 03:09:40;;;;;;;17.85;6.40;;;;;;;6.46;100.00;98391.22;4992481;28;20050;-47
2022/12/31 03:15:21;;;;;;;17.23;6.03;;;;;;;6.46;100.00;98382.97;4991326;28;20043;-50
2022/12/31 03:17:50;;;;;;;19.10;8.07;;;;;;;6.46;100.00;98380.22;4987838;28;20042;-47
2022/12/31 03:27:34;;;;;;;16.70;5.72;;;;;;;6.43;100.00;98367.25;4991757;28;20173;-46
2022/12/31 03:30:01;;;;;;;15.50;6.00;;;;;;;6.43;100.00;98363.72;4995265;28;20440;-47
2022/12/31 03:32:27;;;;;;;20.58;6.07;;;;;;;6.41;100.00;98366.81;4992207;28;20085;-47
2022/12/31 03:35:14;;;;;;;18.13;5.90;;;;;;;6.42;100.00;98393.16;4988044;28;20173;-46
2022/12/31 03:37:42;;;;;;;14.77;5.75;;;;;;;6.43;100.00;98396.69;4993502;28;20148;-46
2022/12/31 03:47:40;;;;;;;13.30;6.00;;;;;;;6.39;100.00;98388.38;4994307;28;20372;-46
2022/12/31 03:50:45;;;;;;;13.27;5.75;;;;;;;6.39;100.00;98391.13;4989557;28;20042;-46
2022/12/31 03:53:34;;;;;;;12.05;5.63;;;;;;;6.39;100.00;98390.34;4993974;28;20054;-47
2022/12/31 03:56:23;;;;;;;15.63;5.60;;;;;;;6.37;100.00;98387.97;4991182;28;20073;-49
2022/12/31 03:58:50;;;;;;;16.70;6.00;;;;;;;6.38;100.00;98386.81;4993215;28;20073;-46
2022/12/31 04:01:17;;;;;;;21.70;7.45;;;;;;;6.39;100.00;98382.91;4993565;28;20559;-47
2022/12/31 04:12:07;;;;;;;20.98;6.90;;;;;;;6.34;100.00;98363.19;5010486;28;20038;-47
2022/12/31 04:14:49;;;;;;;;;;;;;;;6.33;100.00;98376.13;5012475;28;20593;-46
2022/12/31 04:17:16;;;;;;;19.55;7.65;;;;;;;6.33;100.00;98378.88;5011733;28;20298;-46
2022/12/31 04:27:48;;;;;;;18.35;6.72;;;;;;;6.33;100.00;98365.16;5009861;28;20068;-46
2022/12/31 04:30:15;;;;;;;20.90;5.63;;;;;;;6.32;100.00;98374.56;5010871;28;20045;-49
2022/12/31 04:32:42;;;;;;;9.60;5.40;;;;;;;6.33;100.00;98359.66;5009092;28;20049;-47
2022/12/31 04:35:10;;;;;;;18.85;5.78;;;;;;;6.34;100.00;98353.00;4994060;28;20392;-46
2022/12/31 04:38:20;;;;;;;23.88;5.97;;;;;;;6.33;100.00;98337.66;5010099;28;20510;-47
2022/12/31 04:43:32;;;;;;;13.00;4.85;;;;;;;6.33;100.00;98351.41;5007698;28;20132;-47
2022/12/31 04:50:10;;;;;;;11.63;4.72;;;;;;;6.31;100.00;98378.47;5013412;28;20033;-48
2022/12/31 04:53:02;;;;;;;12.50;4.68;;;;;;;6.31;100.00;98375.72;5007688;28;20053;-46
2022/12/31 04:59:53;;;;;;;7.05;4.18;;;;;;;6.28;100.00;98400.41;5005719;28;20482;-46
2022/12/31 05:02:20;;;;;;;12.77;4.35;;;;;;;6.29;100.00;98396.50;5009012;28;20502;-47
2022/12/31 05:04:47;;;;;;;12.90;5.38;;;;;;;6.31;100.00;98399.66;5011145;28;20073;-46
2022/12/31 05:07:18;;;;;;;15.10;5.00;;;;;;;6.32;100.00;98402.06;5011816;28;20080;-48
2022/12/31 05:10:02;;;;;;;11.43;5.75;;;;;;;6.33;100.00;98397.34;5009060;28;20052;-49
2022/12/31 05:12:29;;;;;;;18.95;6.70;;;;;;;6.33;100.00;98398.13;5010327;28;20058;-47
2022/12/31 05:14:56;;;;;;;17.25;7.72;;;;;;;6.33;100.00;98398.13;5008873;28;20042;-47
2022/12/31 05:17:22;;;;;;;20.70;8.13;;;;;;;6.33;100.00;98411.88;5012002;28;20073;-49
2022/12/31 05:19:53;;;;;;;22.80;8.50;;;;;;;6.36;100.00;98418.56;5010801;28;20077;-48
2022/12/31 05:26:19;;;;;;;23.52;8.25;;;;;;;6.38;100.00;98427.25;5008182;28;20049;-48
2022/12/31 05:28:46;;;;;;;24.67;9.60;;;;;;;6.38;100.00;98424.50;5006388;28;20042;-46
2022/12/31 05:31:12;;;;;;;23.27;9.73;;;;;;;6.36;100.00;98422.13;5013806;28;20057;-49
2022/12/31 05:47:59;;;;;;;28.60;9.40;;;;;;;6.39;100.00;98445.31;5013831;28;20045;-47
2022/12/31 05:53:58;;;;;;;22.63;9.27;;;;;;;6.38;100.00;98450.00;5014535;28;20041;-47
2022/12/31 06:00:17;;;;;;;21.92;9.73;;;;;;;6.37;100.00;98451.19;5008467;28;20781;-45
2022/12/31 06:03:16;;;;;;;27.02;10.13;;;;;;;6.38;100.00;98444.50;5010481;28;20451;-46
2022/12/31 06:05:43;;;;;;;21.45;8.73;;;;;;;6.39;100.00;98437.06;5004343;28;20045;-46
2022/12/31 06:08:11;;;;;;;21.13;9.23;;;;;;;6.38;100.00;98455.50;5014524;28;20058;-48
2022/12/31 06:10:38;;;;;;;28.90;8.95;;;;;;;6.38;100.00;98455.50;5012637;28;20046;-47
2022/12/31 06:13:05;;;;;;;19.27;8.65;;;;;;;6.38;100.00;98454.72;5013446;28;20467;-45
2022/12/31 06:15:35;;;;;;;22.55;8.18;;;;;;;6.37;100.00;98459.44;5011782;28;20037;-50
2022/12/31 06:18:02;;;;;;;18.52;7.65;;;;;;;6.38;100.00;98447.25;5012898;28;20057;-46
2022/12/31 06:20:29;;;;;;;17.08;7.25;;;;;;;6.38;100.00;98450.00;5013546;28;20045;-46
2022/12/31 06:22:56;;;;;;;21.40;6.60;;;;;;;6.39;100.00;98457.09;5013470;28;20121;-46
2022/12/31 06:25:22;;;;;;;16.75;5.78;;;;;;;6.40;100.00;98458.69;5013352;28;20104;-47
2022/12/31 06:27:53;;;;;;;16.33;5.40;;;;;;;6.40;100.00;98466.94;5013676;28;20053;-48
2022/12/31 06:31:14;;;;;;;16.13;5.68;;;;;;;6.42;100.00;98461.84;5013844;28;20077;-46
2022/12/31 06:33:41;;;;;;;15.90;5.95;;;;;;;6.44;100.00;98458.72;5011639;28;20399;-46
2022/12/31 06:36:13;;;;;;;14.20;5.50;;;;;;;6.44;100.00;98459.50;5021688;28;20048;-45
2022/12/31 06:38:41;;;;;;;18.40;4.88;;;;;;;6.44;100.00;98465.00;5012283;28;20066;-46
2022/12/31 06:41:12;;;;;;;18.02;4.78;;;;;;;6.46;100.00;98473.66;5012471;28;20119;-44
2022/12/31 06:43:41;;;;;;;9.70;4.40;;;;;;;6.48;100.00;98476.06;5014030;28;20052;-45
2022/12/31 06:46:10;;;;;;;12.63;5.55;;;;;;;6.48;100.00;98476.88;5011833;28;20038;-46
2022/12/31 06:48:38;;;;;;;15.63;5.25;;;;;;;6.49;100.00;98483.13;5011181;28;20065;-49
2022/12/31 06:51:09;;;;;;;16.63;4.97;;;;;;;6.50;100.00;98495.72;5011604;28;20129;-46
2022/12/31 06:53:43;;;;;;;16.77;5.68;;;;;;;6.48;100.00;98506.28;5012688;28;20041;-45
2022/12/31 06:56:17;;;;;;;13.85;6.22;;;;;;;6.47;100.00;98511.00;5011226;28;20121;-45
2022/12/31 06:58:45;;;;;;;21.23;7.00;;;;;;;6.48;100.00;98503.56;5008052;28;20513;-47
2022/12/31 07:01:27;;;;;;;18.50;5.85;;;;;;;6.48;100.00;98512.59;5011378;28;20096;-48
2022/12/31 07:08:15;;;;;;;17.23;6.63;;;;;;;6.48;100.00;98509.84;5005952;28;20037;-46
2022/12/31 07:10:58;;;;;;;15.95;5.50;;;;;;;6.48;100.00;98509.84;5012526;28;20084;-46
2022/12/31 07:13:37;;;;;;;15.45;4.90;;;;;;;6.48;100.00;98503.56;5014089;28;20233;-46
2022/12/31 07:16:15;;;;;;;11.85;4.68;;;;;;;6.48;100.00;98476.88;5011486;28;20499;-45
2022/12/31 07:19:55;;;;;;;14.25;4.60;;;;;;;6.47;100.00;98464.28;5011892;28;20058;-48
2022/12/31 07:22:24;;;;;;;9.30;3.85;;;;;;;6.47;100.00;98469.78;5005402;28;20478;-45
2022/12/31 07:24:51;;;;;;;15.00;6.05;;;;;;;6.48;100.00;98471.38;5011747;28;20049;-46
2022/12/31 07:27:36;;;;;;;13.45;5.18;;;;;;;6.49;100.00;98463.88;5012158;28;20096;-52
2022/12/31 07:30:08;;;;;;;10.65;4.55;;;;;;;6.50;100.00;98479.22;5010852;28;20042;-46
2022/12/31 07:32:41;;;;;;;10.98;4.85;;;;;;;6.48;100.00;98481.56;5011830;28;20044;-45
2022/12/31 07:35:31;;;;;;;16.02;4.97;;;;;;;6.48;100.00;98498.84;5012853;28;20046;-46
2022/12/31 07:38:25;;;;;;;9.40;3.97;;;;;;;6.50;100.00;98501.22;4999359;28;20038;-45
2022/12/31 07:41:29;;;;;;;17.63;4.47;;;;;;;6.49;100.00;98497.66;5012379;28;20049;-48
2022/12/31 07:48:34;;;;;;;13.88;4.35;;;;;;;6.47;100.00;98516.50;5010873;28;20042;-47
2022/12/31 07:51:01;;;;;;;7.18;4.32;;;;;;;6.48;100.00;98509.84;5010880;28;20495;-47
2022/12/31 07:54:10;;;;;;;12.77;4.80;;;;;;;6.47;100.00;98516.50;5011440;28;20049;-46
2022/12/31 07:56:45;;;;;;;12.52;5.10;;;;;;;6.48;100.00;98517.28;5010570;28;20042;-45
2022/12/31 07:59:41;;;;;;;9.60;4.32;;;;;;;6.49;100.00;98527.09;5010698;28;20495;-45
2022/12/31 08:02:12;;;;;;;13.85;5.40;;;;;;;6.48;100.00;98517.28;5009985;28;20455;-44
2022/12/31 08:04:52;;;;;;;17.45;5.75;;;;;;;6.47;100.00;98508.25;5012174;28;20088;-46
2022/12/31 08:07:56;;;;;;;20.77;5.07;;;;;;;6.44;100.00;98492.50;5012571;28;20042;-45
2022/12/31 08:10:31;;;;;;;13.55;5.10;;;;;;;6.43;100.00;98490.94;5012186;28;20100;-44
2022/12/31 08:13:04;;;;;;;12.23;4.63;;;;;;;6.42;100.00;98489.34;5011066;28;20050;-45
2022/12/31 08:15:35;;;;;;;17.83;4.38;;;;;;;6.44;100.00;98497.19;5001305;28;20050;-44
2022/12/31 08:22:40;;;;;;;13.10;4.00;;;;;;;6.43;100.00;98496.44;5009624;28;20088;-45
2022/12/31 08:26:00;;;;;;;9.07;3.33;;;;;;;6.44;100.00;98477.97;5010758;28;20089;-45
2022/12/31 08:28:32;;;;;;;12.00;3.03;;;;;;;6.41;100.00;98487.75;5011446;28;20058;-46
2022/12/31 08:31:09;;;;;;;;;;;;;;;6.39;100.00;98492.81;5012135;28;20468;-44
2022/12/31 08:45:30;;;;;;;9.90;3.72;;;;;;;6.40;100.00;98513.66;5007008;28;20033;-46
2022/12/31 08:48:25;;;;;;;12.82;3.38;;;;;;;6.40;100.00;98505.41;5003491;28;20439;-45
2022/12/31 08:51:19;;;;;;;17.58;5.20;;;;;;;6.38;100.00;98501.44;5011439;28;20076;-45
2022/12/31 08:53:47;;;;;;;10.55;3.72;;;;;;;6.39;100.00;98519.50;5011978;28;20061;-44
2022/12/31 09:04:07;;;;;;;10.05;4.57;;;;;;;6.41;100.00;98506.97;5006731;28;20054;-45
2022/12/31 09:10:56;;;;;;;;;;;;;;;6.39;100.00;98501.06;5005297;28;20038;-46
2022/12/31 09:13:29;;;;;;;7.57;2.28;;;;;;;6.39;100.00;98495.56;5014088;28;19921;-45
2022/12/31 09:16:26;;;;;;;7.40;2.10;;;;;;;6.38;100.00;98499.47;5014676;28;20049;-45
2022/12/31 09:18:54;;;;;;;7.40;1.42;;;;;;;6.40;100.00;98513.66;5004716;28;20058;-48
2022/12/31 09:21:20;;;;;;;4.88;1.50;;;;;;;6.40;100.00;98512.84;5015475;28;20060;-44
2022/12/31 09:23:47;;;;;;;8.63;1.42;;;;;;;6.41;100.00;98500.69;5014746;28;20042;-48
2022/12/31 09:26:33;;;;;;;4.78;1.02;;;;;;;6.41;100.00;98501.47;5012557;28;20150;-49
2022/12/31 09:29:21;;;;;;;7.97;1.42;;;;;;;6.41;100.00;98497.94;5008698;28;20052;-48
2022/12/31 09:32:16;;;;;;;3.28;1.17;;;;;;;6.40;100.00;98505.41;5013307;28;20459;-46
2022/12/31 09:34:57;;;;;;;9.57;1.92;;;;;;;6.38;100.00;98504.19;5010245;28;20124;-45
2022/12/31 09:37:37;;;;;;;10.02;1.42;;;;;;;6.38;100.00;98504.97;5013633;28;20038;-46
2022/12/31 09:40:38;;;;;;;6.90;1.55;;;;;;;6.38;100.00;98504.97;5013670;28;20376;-48
2022/12/31 09:43:08;;;;;;;11.02;2.70;;;;;;;6.37;100.00;98508.09;4997260;28;20062;-46
2022/12/31 09:46:08;;;;;;;9.30;3.22;;;;;;;6.36;100.00;98501.00;5015266;28;20776;-48
2022/12/31 09:48:44;;;;;;;14.57;3.15;;;;;;;6.38;100.00;98491.22;5012326;28;20065;-45
2022/12/31 09:51:55;;;;;;;8.63;2.88;;;;;;;6.40;100.00;98505.41;5013770;28;20124;-45
2022/12/31 09:54:27;;;;;;;8.73;3.80;;;;;;;6.43;100.00;98517.63;5012325;28;20132;-42
2022/12/31 09:56:57;;;;;;;21.27;4.45;;;;;;;6.46;100.00;98533.38;5012918;28;20121;-45
2022/12/31 10:00:03;;;;;;;15.20;4.43;;;;;;;6.48;100.00;98531.84;5013997;28;20034;-47
2022/12/31 10:02:51;;;;;;;11.35;3.47;;;;;;;6.52;100.00;98531.84;5004880;28;20071;-46
2022/12/31 10:05:26;;;;;;;19.83;4.68;;;;;;;6.53;100.00;98527.97;5015418;28;20492;-46
2022/12/31 10:08:19;;;;;;;10.82;3.72;;;;;;;6.55;100.00;98542.91;5013758;28;20072;-46
2022/12/31 10:10:57;;;;;;;19.35;6.00;;;;;;;6.58;100.00;98544.94;5012777;28;20141;-45
2022/12/31 10:13:27;;;;;;;12.50;4.10;;;;;;;6.60;100.00;98548.09;5012174;28;20038;-46
2022/12/31 10:16:18;;;;;;;12.88;3.83;;;;;;;6.61;100.00;98541.44;5014983;28;20399;-45
2022/12/31 10:19:13;;;;;;;15.55;4.07;;;;;;;6.64;100.00;98537.16;5004086;28;20156;-47
2022/12/31 10:22:22;;;;;;;12.93;4.40;;;;;;;6.66;100.00;98541.09;5014714;28;20076;-45
2022/12/31 10:25:13;;;;;;;17.40;5.80;;;;;;;6.67;100.00;98545.41;4988559;28;20050;-45
2022/12/31 10:28:39;;;;;;;9.85;3.80;;;;;;;6.70;100.00;98552.94;5012716;28;20387;-47
2022/12/31 10:31:32;;;;;;;10.18;3.67;;;;;;;6.74;100.00;98566.75;4989454;28;20054;-45
2022/12/31 10:34:04;;;;;;;;;;;;;;;6.74;100.00;98558.50;4991203;28;20081;-45
2022/12/31 10:36:46;;;;;;;10.15;3.47;;;;;;;6.78;100.00;98553.03;5010855;28;19952;-46
2022/12/31 10:39:30;;;;;;;7.97;3.63;;;;;;;6.81;100.00;98555.81;5013679;28;20042;-46
2022/12/31 10:41:57;;;;;;;11.13;3.80;;;;;;;6.83;100.00;98550.72;5012213;28;20540;-48
2022/12/31 10:44:42;;;;;;;13.15;3.72;;;;;;;6.85;100.00;98551.19;5011836;28;20048;-47
2022/12/31 10:47:41;;;;;;;12.23;2.90;;;;;;;6.89;100.00;98540.19;5012363;28;20048;-47
2022/12/31 10:50:37;;;;;;;10.32;2.80;;;;;;;6.91;100.00;98538.66;5011647;28;20132;-47
2022/12/31 10:53:17;;;;;;;16.75;3.05;;;;;;;6.94;100.00;98528.84;5012542;28;20042;-45
2022/12/31 10:55:53;;;;;;;8.35;2.67;;;;;;;6.98;100.00;98518.72;5012065;28;20499;-47
2022/12/31 10:58:51;;;;;;;12.18;3.05;;;;;;;7.02;100.00;98522.28;5012523;28;20045;-51
2022/12/31 11:01:31;;;;;;;7.38;3.13;;;;;;;7.07;100.00;98521.97;5012278;28;20129;-49
2022/12/31 11:04:34;;;;;;;6.85;3.17;;;;;;;7.09;100.00;98508.63;5011303;28;20076;-45
2022/12/31 11:07:14;;;;;;;10.02;2.58;;;;;;;7.12;100.00;98503.13;4990950;28;20069;-45
2022/12/31 11:10:20;;;;;;;7.10;1.90;;;;;;;7.16;100.00;98511.44;5009711;28;20581;-46
2022/12/31 11:12:56;;;;;;;5.50;2.10;;;;;;;7.20;100.00;98517.78;5010710;28;20046;-47
2022/12/31 11:16:00;;;;;;;6.53;2.05;;;;;;;7.22;100.00;98515.44;5001128;28;20042;-46
2022/12/31 11:22:43;;;;;;;6.93;3.30;;;;;;;7.23;100.00;98517.00;5005512;28;20042;-46
2022/12/31 11:25:10;;;;;;;7.88;1.75;;;;;;;7.22;100.00;98510.75;5002409;28;20034;-48
2022/12/31 11:28:04;;;;;;;11.90;2.50;;;;;;;7.23;100.00;98504.06;5011287;28;20491;-50
2022/12/31 11:31:00;;;;;;;8.20;3.17;;;;;;;7.26;100.00;98495.03;5012489;28;20133;-46
2022/12/31 11:33:49;;;;;;;7.28;3.95;;;;;;;7.29;100.00;98497.03;4989755;28;20112;-46
2022/12/31 11:36:29;;;;;;;6.63;3.03;;;;;;;7.31;100.00;98496.66;5012408;28;20054;-44
2022/12/31 11:39:00;;;;;;;5.22;1.83;;;;;;;7.32;100.00;98488.03;5012614;28;20137;-44
2022/12/31 11:41:53;;;;;;;5.30;2.28;;;;;;;7.35;100.00;98484.53;5012231;28;20492;-46
2022/12/31 11:44:47;;;;;;;3.72;1.55;;;;;;;7.42;100.00;98474.75;5002267;28;20042;-46
2022/12/31 11:47:32;;;;;;;9.23;2.85;;;;;;;7.45;100.00;98477.53;4997801;28;20052;-46
2022/12/31 11:50:28;;;;;;;2.95;1.70;;;;;;;7.50;100.00;98471.69;5011756;28;20054;-48
2022/12/31 11:53:35;;;;;;;4.07;2.53;;;;;;;7.54;100.00;98471.72;5013170;28;20510;-45
2022/12/31 11:56:17;;;;;;;4.68;2.67;;;;;;;7.56;100.00;98452.84;5001663;28;20132;-47
2022/12/31 11:58:53;;;;;;;7.80;3.55;;;;;;;7.58;100.00;98451.28;5012471;28;20033;-45
2022/12/31 12:01:25;;;;;;;11.85;5.68;;;;;;;7.61;100.00;98453.28;5012088;28;20473;-48
2022/12/31 12:03:52;;;;;;;13.27;4.45;;;;;;;7.62;100.00;98463.13;5012317;28;20073;-47
2022/12/31 12:06:39;;;;;;;8.48;4.75;;;;;;;7.66;100.00;98458.44;5010469;28;20042;-49
2022/12/31 12:09:15;;;;;;;11.43;6.00;;;;;;;7.69;100.00;98445.88;5012394;28;20395;-44
2022/12/31 12:11:42;;;;;;;16.70;7.93;;;;;;;7.71;100.00;98454.53;5012373;28;20439;-45
2022/12/31 12:14:34;;;;;;;15.98;6.82;;;;;;;7.74;100.00;98454.56;5013381;28;20057;-41
2022/12/31 12:17:13;;;;;;;15.13;6.60;;;;;;;7.75;100.00;98461.69;5011649;28;20070;-47
2022/12/31 12:19:55;;;;;;;12.13;6.65;;;;;;;7.75;100.00;98447.91;5012286;28;20038;-45
2022/12/31 12:22:31;;;;;;;9.75;5.10;;;;;;;7.79;100.00;98451.47;5010820;28;20054;-49
2022/12/31 12:25:21;;;;;;;7.72;4.82;;;;;;;7.83;100.00;98452.28;5000153;28;20104;-44
2022/12/31 12:27:48;;;;;;;8.40;3.72;;;;;;;7.88;100.00;98446.41;5011384;28;20042;-46
2022/12/31 12:30:25;;;;;;;9.00;4.70;;;;;;;7.92;100.00;98441.72;5011564;28;20402;-46
2022/12/31 12:33:03;;;;;;;8.82;4.53;;;;;;;7.96;100.00;98427.97;5011903;28;20112;-49
2022/12/31 12:35:34;;;;;;;9.90;4.47;;;;;;;8.02;100.00;98426.44;5011844;28;20471;-44
2022/12/31 12:38:12;;;;;;;14.90;6.20;;;;;;;8.05;100.00;98422.13;5011915;28;20052;-46
2022/12/31 12:40:51;;;;;;;13.82;6.72;;;;;;;8.08;100.00;98415.81;5010249;28;20092;-45
2022/12/31 12:43:38;;;;;;;12.88;5.82;;;;;;;8.11;100.00;98412.31;5011149;28;20538;-47
2022/12/31 12:46:29;;;;;;;11.20;6.28;;;;;;;8.13;100.00;98409.97;5011857;28;20065;-46
2022/12/31 12:48:57;;;;;;;11.73;5.72;;;;;;;8.13;100.00;98407.97;5010918;28;20042;-45
2022/12/31 12:51:42;;;;;;;8.68;4.78;;;;;;;8.13;100.00;98407.22;5010238;28;20495;-45
2022/12/31 12:54:18;;;;;;;11.65;5.07;;;;;;;8.13;100.00;98404.47;4998581;28;20041;-45
2022/12/31 12:57:10;;;;;;;12.65;4.75;;;;;;;8.14;100.00;98403.25;5009499;28;20466;-46
2022/12/31 12:59:59;;;;;;;8.98;4.95;;;;;;;8.14;100.00;98403.25;5011086;28;20053;-44
2022/12/31 13:02:38;;;;;;;18.77;7.72;;;;;;;8.13;100.00;98416.25;5001379;28;20076;-46
2022/12/31 13:05:45;;;;;;;17.95;8.77;;;;;;;8.13;100.00;98398.94;5023327;28;20058;-45
2022/12/31 13:08:14;;;;;;;19.35;7.22;;;;;;;8.12;100.00;98387.13;5010877;28;20050;-45
2022/12/31 13:11:05;;;;;;;17.52;6.97;;;;;;;8.14;100.00;98383.97;5010283;28;20088;-47
2022/12/31 13:14:03;;;;;;;11.85;4.95;;;;;;;8.16;100.00;98379.66;4988903;28;20133;-46
2022/12/31 13:16:41;;;;;;;13.18;5.00;;;;;;;8.19;100.00;98392.66;5011049;28;20119;-46
2022/12/31 13:19:22;;;;;;;12.05;6.07;;;;;;;8.23;100.00;98392.69;5003831;28;20046;-47
2022/12/31 13:22:33;;;;;;;15.35;5.85;;;;;;;8.25;100.00;98406.88;5010589;28;20045;-45
2022/12/31 13:25:30;;;;;;;10.68;6.10;;;;;;;8.25;100.00;98407.66;5006356;28;20137;-45
2022/12/31 13:31:39;;;;;;;16.83;7.20;;;;;;;8.32;100.00;98393.13;4989105;28;20068;-46
2022/12/31 13:34:17;;;;;;;16.42;6.88;;;;;;;8.38;100.00;98383.34;5006315;28;20042;-44
2022/12/31 13:36:47;;;;;;;22.73;8.00;;;;;;;8.41;100.00;98382.56;5006113;28;20539;-45
2022/12/31 13:39:19;;;;;;;21.70;9.75;;;;;;;8.45;100.00;98377.84;5009804;28;20068;-47
2022/12/31 13:41:59;;;;;;;20.17;7.63;;;;;;;8.51;100.00;98384.56;5010572;28;20045;-44
2022/12/31 13:44:48;;;;;;;17.40;8.60;;;;;;;8.57;100.00;98380.25;5013769;28;20214;-47
2022/12/31 13:47:21;;;;;;;19.77;9.82;;;;;;;8.59;100.00;98383.41;5014894;28;20046;-44
2022/12/31 13:49:51;;;;;;;12.20;6.07;;;;;;;8.60;100.00;98378.69;5006882;28;20401;-45
2022/12/31 13:52:40;;;;;;;20.10;5.88;;;;;;;8.59;100.00;98372.38;5011714;28;20038;-56
2022/12/31 13:55:29;;;;;;;20.98;5.00;;;;;;;8.58;100.00;98366.06;5013908;28;20038;-44
2022/12/31 13:58:03;;;;;;;15.82;3.60;;;;;;;8.58;100.00;98366.06;5012685;28;20137;-44
2022/12/31 14:00:44;;;;;;;29.73;5.10;;;;;;;8.58;100.00;98373.53;5014334;28;20073;-47
2022/12/31 14:03:42;;;;;;;29.83;4.10;;;;;;;8.62;100.00;98388.16;5011742;28;20146;-44
2022/12/31 14:06:53;;;;;;;23.25;3.97;;;;;;;8.64;100.00;98391.31;4994561;28;20039;-47
2022/12/31 14:09:27;;;;;;;21.55;3.95;;;;;;;8.65;100.00;98392.88;4994118;28;20084;-46
2022/12/31 14:12:21;;;;;;;18.35;3.67;;;;;;;8.64;100.00;98391.31;4992910;28;20117;-47
2022/12/31 14:14:57;;;;;;;17.00;3.53;;;;;;;8.62;100.00;98392.88;4975279;28;20058;-45
2022/12/31 14:17:39;;;;;;;18.55;3.03;;;;;;;8.59;100.00;98383.41;4992948;28;20038;-45
2022/12/31 14:20:48;;;;;;;21.40;3.53;;;;;;;8.58;100.00;98376.31;4993693;28;20053;-49
2022/12/31 14:23:52;;;;;;;18.60;3.80;;;;;;;8.56;100.00;98375.91;4994377;28;20050;-46
2022/12/31 14:26:42;;;;;;;13.15;3.20;;;;;;;8.54;100.00;98375.50;4992797;28;20551;-45
2022/12/31 14:29:08;;;;;;;15.82;3.10;;;;;;;8.53;100.00;98379.44;4993162;28;20050;-45
2022/12/31 14:31:48;;;;;;;27.23;4.22;;;;;;;8.52;100.00;98377.88;4993724;28;20100;-47
2022/12/31 14:34:29;;;;;;;15.27;4.38;;;;;;;8.50;100.00;98377.44;4993661;28;20110;-46
2022/12/31 14:37:02;;;;;;;20.15;3.42;;;;;;;8.50;100.00;98382.97;4993678;28;20133;-45
2022/12/31 14:39:54;;;;;;;17.08;2.85;;;;;;;8.51;100.00;98395.59;4994011;28;20460;-48